sensor_id;sensor_type;location;lat;lon;timestamp;temperature;humidity
69208;SHT31;70114;47.690;8.898;2023-12-20T00:01:15;4.44;85.00
69208;SHT31;70114;47.690;8.898;2023-12-20T00:03:41;4.51;84.70
69208;SHT31;70114;47.690;8.898;2023-12-20T00:06:06;4.51;84.76
69208;SHT31;70114;47.690;8.898;2023-12-20T00:08:32;4.51;84.67
69208;SHT31;70114;47.690;8.898;2023-12-20T00:10:57;4.52;84.42
69208;SHT31;70114;47.690;8.898;2023-12-20T00:13:23;4.55;84.32
69208;SHT31;70114;47.690;8.898;2023-12-20T00:15:48;4.48;84.40
69208;SHT31;70114;47.690;8.898;2023-12-20T00:18:13;4.59;84.30
69208;SHT31;70114;47.690;8.898;2023-12-20T00:20:39;4.56;84.15
69208;SHT31;70114;47.690;8.898;2023-12-20T00:23:04;4.58;84.13
69208;SHT31;70114;47.690;8.898;2023-12-20T00:25:30;4.59;84.01
69208;SHT31;70114;47.690;8.898;2023-12-20T00:27:55;4.58;83.64
69208;SHT31;70114;47.690;8.898;2023-12-20T00:30:20;4.66;83.78
69208;SHT31;70114;47.690;8.898;2023-12-20T00:32:46;4.56;83.47
69208;SHT31;70114;47.690;8.898;2023-12-20T00:35:15;4.53;83.58
69208;SHT31;70114;47.690;8.898;2023-12-20T00:37:44;4.48;83.33
69208;SHT31;70114;47.690;8.898;2023-12-20T00:40:10;4.56;83.38
69208;SHT31;70114;47.690;8.898;2023-12-20T00:42:35;4.55;83.25
69208;SHT31;70114;47.690;8.898;2023-12-20T00:45:04;4.55;83.11
69208;SHT31;70114;47.690;8.898;2023-12-20T00:47:30;4.56;83.10
69208;SHT31;70114;47.690;8.898;2023-12-20T00:49:56;4.58;82.94
69208;SHT31;70114;47.690;8.898;2023-12-20T00:52:21;4.52;82.34
69208;SHT31;70114;47.690;8.898;2023-12-20T00:54:48;4.53;82.19
69208;SHT31;70114;47.690;8.898;2023-12-20T00:57:13;4.58;81.96
69208;SHT31;70114;47.690;8.898;2023-12-20T00:59:39;4.52;81.88
69208;SHT31;70114;47.690;8.898;2023-12-20T01:02:04;4.58;81.64
69208;SHT31;70114;47.690;8.898;2023-12-20T01:04:30;4.51;81.26
69208;SHT31;70114;47.690;8.898;2023-12-20T01:06:55;4.49;81.09
69208;SHT31;70114;47.690;8.898;2023-12-20T01:09:20;4.55;80.88
69208;SHT31;70114;47.690;8.898;2023-12-20T01:11:49;4.52;81.04
69208;SHT31;70114;47.690;8.898;2023-12-20T01:14:14;4.53;80.85
69208;SHT31;70114;47.690;8.898;2023-12-20T01:16:39;4.55;80.69
69208;SHT31;70114;47.690;8.898;2023-12-20T01:19:05;4.62;80.67
69208;SHT31;70114;47.690;8.898;2023-12-20T01:21:30;4.58;80.49
69208;SHT31;70114;47.690;8.898;2023-12-20T01:23:56;4.65;80.60
69208;SHT31;70114;47.690;8.898;2023-12-20T01:26:21;4.69;79.96
69208;SHT31;70114;47.690;8.898;2023-12-20T01:28:46;4.75;79.71
69208;SHT31;70114;47.690;8.898;2023-12-20T01:31:12;4.83;79.27
69208;SHT31;70114;47.690;8.898;2023-12-20T01:33:37;4.77;78.59
69208;SHT31;70114;47.690;8.898;2023-12-20T01:36:03;4.83;78.60
69208;SHT31;70114;47.690;8.898;2023-12-20T01:38:29;4.76;78.91
69208;SHT31;70114;47.690;8.898;2023-12-20T01:40:54;4.77;78.67
69208;SHT31;70114;47.690;8.898;2023-12-20T01:43:19;4.76;78.47
69208;SHT31;70114;47.690;8.898;2023-12-20T01:45:46;4.70;78.30
69208;SHT31;70114;47.690;8.898;2023-12-20T01:48:12;4.68;77.93
69208;SHT31;70114;47.690;8.898;2023-12-20T01:50:37;4.72;77.85
69208;SHT31;70114;47.690;8.898;2023-12-20T01:53:04;4.73;77.67
69208;SHT31;70114;47.690;8.898;2023-12-20T01:55:32;4.59;77.85
69208;SHT31;70114;47.690;8.898;2023-12-20T01:58:00;4.66;77.79
69208;SHT31;70114;47.690;8.898;2023-12-20T02:00:27;4.68;77.47
69208;SHT31;70114;47.690;8.898;2023-12-20T02:02:54;4.65;77.73
69208;SHT31;70114;47.690;8.898;2023-12-20T02:05:21;4.62;77.96
69208;SHT31;70114;47.690;8.898;2023-12-20T02:07:47;4.66;77.96
69208;SHT31;70114;47.690;8.898;2023-12-20T02:10:13;4.65;77.96
69208;SHT31;70114;47.690;8.898;2023-12-20T02:12:38;4.66;78.14
69208;SHT31;70114;47.690;8.898;2023-12-20T02:15:04;4.72;78.11
69208;SHT31;70114;47.690;8.898;2023-12-20T02:17:31;4.65;78.03
69208;SHT31;70114;47.690;8.898;2023-12-20T02:19:57;4.70;78.13
69208;SHT31;70114;47.690;8.898;2023-12-20T02:22:22;4.66;78.24
69208;SHT31;70114;47.690;8.898;2023-12-20T02:24:47;4.56;78.11
69208;SHT31;70114;47.690;8.898;2023-12-20T02:27:15;4.62;78.40
69208;SHT31;70114;47.690;8.898;2023-12-20T02:29:43;4.62;78.19
69208;SHT31;70114;47.690;8.898;2023-12-20T02:32:08;4.59;78.45
69208;SHT31;70114;47.690;8.898;2023-12-20T02:34:33;4.66;78.30
69208;SHT31;70114;47.690;8.898;2023-12-20T02:36:59;4.55;78.83
69208;SHT31;70114;47.690;8.898;2023-12-20T02:39:24;4.62;78.66
69208;SHT31;70114;47.690;8.898;2023-12-20T02:41:50;4.66;78.98
69208;SHT31;70114;47.690;8.898;2023-12-20T02:44:15;4.61;79.21
69208;SHT31;70114;47.690;8.898;2023-12-20T02:46:40;4.61;79.62
69208;SHT31;70114;47.690;8.898;2023-12-20T02:49:06;4.63;79.88
69208;SHT31;70114;47.690;8.898;2023-12-20T02:51:32;4.68;80.04
69208;SHT31;70114;47.690;8.898;2023-12-20T02:53:57;4.65;80.40
69208;SHT31;70114;47.690;8.898;2023-12-20T02:56:22;4.69;80.81
69208;SHT31;70114;47.690;8.898;2023-12-20T02:58:48;4.63;81.43
69208;SHT31;70114;47.690;8.898;2023-12-20T03:01:13;4.62;81.96
69208;SHT31;70114;47.690;8.898;2023-12-20T03:03:39;4.62;82.35
69208;SHT31;70114;47.690;8.898;2023-12-20T03:06:04;4.61;82.80
69208;SHT31;70114;47.690;8.898;2023-12-20T03:08:30;4.53;82.72
69208;SHT31;70114;47.690;8.898;2023-12-20T03:10:55;4.53;82.72
69208;SHT31;70114;47.690;8.898;2023-12-20T03:13:20;4.46;83.20
69208;SHT31;70114;47.690;8.898;2023-12-20T03:15:46;4.49;83.54
69208;SHT31;70114;47.690;8.898;2023-12-20T03:18:11;4.46;83.79
69208;SHT31;70114;47.690;8.898;2023-12-20T03:20:37;4.44;83.89
69208;SHT31;70114;47.690;8.898;2023-12-20T03:23:03;4.35;84.48
69208;SHT31;70114;47.690;8.898;2023-12-20T03:25:28;4.27;84.74
69208;SHT31;70114;47.690;8.898;2023-12-20T03:27:54;4.32;85.27
69208;SHT31;70114;47.690;8.898;2023-12-20T03:30:19;4.32;85.39
69208;SHT31;70114;47.690;8.898;2023-12-20T03:32:46;4.32;85.71
69208;SHT31;70114;47.690;8.898;2023-12-20T03:35:12;4.24;86.45
69208;SHT31;70114;47.690;8.898;2023-12-20T03:37:37;4.22;86.70
69208;SHT31;70114;47.690;8.898;2023-12-20T03:40:03;4.20;87.36
69208;SHT31;70114;47.690;8.898;2023-12-20T03:42:28;4.21;87.70
69208;SHT31;70114;47.690;8.898;2023-12-20T03:44:54;4.15;88.07
69208;SHT31;70114;47.690;8.898;2023-12-20T03:47:19;4.17;88.36
69208;SHT31;70114;47.690;8.898;2023-12-20T03:49:44;4.25;88.48
69208;SHT31;70114;47.690;8.898;2023-12-20T03:52:10;4.31;88.49
69208;SHT31;70114;47.690;8.898;2023-12-20T03:54:35;4.35;88.42
69208;SHT31;70114;47.690;8.898;2023-12-20T03:57:01;4.32;88.50
69208;SHT31;70114;47.690;8.898;2023-12-20T03:59:26;4.32;88.77
69208;SHT31;70114;47.690;8.898;2023-12-20T04:01:51;4.34;88.97
69208;SHT31;70114;47.690;8.898;2023-12-20T04:04:17;4.38;88.79
69208;SHT31;70114;47.690;8.898;2023-12-20T04:06:42;4.24;89.44
69208;SHT31;70114;47.690;8.898;2023-12-20T04:09:08;4.40;89.13
69208;SHT31;70114;47.690;8.898;2023-12-20T04:11:37;4.30;89.68
69208;SHT31;70114;47.690;8.898;2023-12-20T04:14:02;4.41;89.49
69208;SHT31;70114;47.690;8.898;2023-12-20T04:16:30;4.41;89.60
69208;SHT31;70114;47.690;8.898;2023-12-20T04:18:56;4.44;89.69
69208;SHT31;70114;47.690;8.898;2023-12-20T04:21:21;4.38;90.03
69208;SHT31;70114;47.690;8.898;2023-12-20T04:23:47;4.45;89.72
69208;SHT31;70114;47.690;8.898;2023-12-20T04:26:12;4.42;90.10
69208;SHT31;70114;47.690;8.898;2023-12-20T04:28:38;4.35;90.38
69208;SHT31;70114;47.690;8.898;2023-12-20T04:31:03;4.44;90.21
69208;SHT31;70114;47.690;8.898;2023-12-20T04:33:28;4.45;90.19
69208;SHT31;70114;47.690;8.898;2023-12-20T04:35:54;4.40;90.40
69208;SHT31;70114;47.690;8.898;2023-12-20T04:38:19;4.40;90.73
69208;SHT31;70114;47.690;8.898;2023-12-20T04:40:44;4.38;90.84
69208;SHT31;70114;47.690;8.898;2023-12-20T04:43:10;4.45;90.65
69208;SHT31;70114;47.690;8.898;2023-12-20T04:45:35;4.38;91.22
69208;SHT31;70114;47.690;8.898;2023-12-20T04:48:02;4.41;91.13
69208;SHT31;70114;47.690;8.898;2023-12-20T04:50:27;4.37;91.34
69208;SHT31;70114;47.690;8.898;2023-12-20T04:52:53;4.37;91.43
69208;SHT31;70114;47.690;8.898;2023-12-20T04:55:18;4.37;91.32
69208;SHT31;70114;47.690;8.898;2023-12-20T04:57:44;4.41;91.45
69208;SHT31;70114;47.690;8.898;2023-12-20T05:00:09;4.42;91.17
69208;SHT31;70114;47.690;8.898;2023-12-20T05:02:36;4.40;91.49
69208;SHT31;70114;47.690;8.898;2023-12-20T05:05:01;4.41;91.89
69208;SHT31;70114;47.690;8.898;2023-12-20T05:07:27;4.44;91.43
69208;SHT31;70114;47.690;8.898;2023-12-20T05:09:52;4.41;91.78
69208;SHT31;70114;47.690;8.898;2023-12-20T05:12:18;4.34;92.17
69208;SHT31;70114;47.690;8.898;2023-12-20T05:14:43;4.41;92.05
69208;SHT31;70114;47.690;8.898;2023-12-20T05:17:09;4.38;91.99
69208;SHT31;70114;47.690;8.898;2023-12-20T05:19:34;4.42;91.92
69208;SHT31;70114;47.690;8.898;2023-12-20T05:22:01;4.37;92.07
69208;SHT31;70114;47.690;8.898;2023-12-20T05:24:27;4.38;92.32
69208;SHT31;70114;47.690;8.898;2023-12-20T05:26:52;4.41;92.43
69208;SHT31;70114;47.690;8.898;2023-12-20T05:29:18;4.42;92.17
69208;SHT31;70114;47.690;8.898;2023-12-20T05:31:43;4.48;92.04
69208;SHT31;70114;47.690;8.898;2023-12-20T05:34:08;4.52;91.91
69208;SHT31;70114;47.690;8.898;2023-12-20T05:36:34;4.46;92.51
69208;SHT31;70114;47.690;8.898;2023-12-20T05:38:59;4.44;92.64
69208;SHT31;70114;47.690;8.898;2023-12-20T05:41:24;4.41;92.97
69208;SHT31;70114;47.690;8.898;2023-12-20T05:43:50;4.53;92.64
69208;SHT31;70114;47.690;8.898;2023-12-20T05:46:15;4.45;92.52
69208;SHT31;70114;47.690;8.898;2023-12-20T05:48:41;4.52;92.55
69208;SHT31;70114;47.690;8.898;2023-12-20T05:51:06;4.55;92.55
69208;SHT31;70114;47.690;8.898;2023-12-20T05:53:31;4.58;92.46
69208;SHT31;70114;47.690;8.898;2023-12-20T05:55:57;4.58;92.55
69208;SHT31;70114;47.690;8.898;2023-12-20T05:58:22;4.61;92.54
69208;SHT31;70114;47.690;8.898;2023-12-20T06:00:47;4.56;92.93
69208;SHT31;70114;47.690;8.898;2023-12-20T06:03:14;4.58;92.83
69208;SHT31;70114;47.690;8.898;2023-12-20T06:05:39;4.58;92.82
69208;SHT31;70114;47.690;8.898;2023-12-20T06:08:05;4.59;92.73
69208;SHT31;70114;47.690;8.898;2023-12-20T06:10:30;4.59;92.81
69208;SHT31;70114;47.690;8.898;2023-12-20T06:12:55;4.68;92.32
69208;SHT31;70114;47.690;8.898;2023-12-20T06:15:21;4.63;92.42
69208;SHT31;70114;47.690;8.898;2023-12-20T06:17:47;4.68;92.52
69208;SHT31;70114;47.690;8.898;2023-12-20T06:20:12;4.66;92.31
69208;SHT31;70114;47.690;8.898;2023-12-20T06:22:38;4.68;92.41
69208;SHT31;70114;47.690;8.898;2023-12-20T06:25:04;4.62;92.74
69208;SHT31;70114;47.690;8.898;2023-12-20T06:27:29;4.59;92.76
69208;SHT31;70114;47.690;8.898;2023-12-20T06:29:55;4.66;92.72
69208;SHT31;70114;47.690;8.898;2023-12-20T06:32:21;4.72;92.42
69208;SHT31;70114;47.690;8.898;2023-12-20T06:34:48;4.72;92.66
69208;SHT31;70114;47.690;8.898;2023-12-20T06:37:13;4.75;92.42
69208;SHT31;70114;47.690;8.898;2023-12-20T06:39:40;4.73;92.41
69208;SHT31;70114;47.690;8.898;2023-12-20T06:42:05;4.77;92.51
69208;SHT31;70114;47.690;8.898;2023-12-20T06:44:31;4.80;92.50
69208;SHT31;70114;47.690;8.898;2023-12-20T06:46:57;4.81;92.41
69208;SHT31;70114;47.690;8.898;2023-12-20T06:49:23;4.77;92.62
69208;SHT31;70114;47.690;8.898;2023-12-20T06:51:48;4.81;92.50
69208;SHT31;70114;47.690;8.898;2023-12-20T06:54:13;4.80;92.46
69208;SHT31;70114;47.690;8.898;2023-12-20T06:56:39;4.81;92.72
69208;SHT31;70114;47.690;8.898;2023-12-20T06:59:04;4.83;92.53
69208;SHT31;70114;47.690;8.898;2023-12-20T07:01:30;4.86;92.55
69208;SHT31;70114;47.690;8.898;2023-12-20T07:03:55;4.84;92.69
69208;SHT31;70114;47.690;8.898;2023-12-20T07:06:20;4.79;92.92
69208;SHT31;70114;47.690;8.898;2023-12-20T07:08:46;4.83;92.88
69208;SHT31;70114;47.690;8.898;2023-12-20T07:11:11;4.81;92.73
69208;SHT31;70114;47.690;8.898;2023-12-20T07:13:36;4.86;92.82
69208;SHT31;70114;47.690;8.898;2023-12-20T07:16:02;4.84;92.99
69208;SHT31;70114;47.690;8.898;2023-12-20T07:18:28;4.91;92.77
69208;SHT31;70114;47.690;8.898;2023-12-20T07:20:53;4.86;92.87
69208;SHT31;70114;47.690;8.898;2023-12-20T07:23:19;4.91;92.92
69208;SHT31;70114;47.690;8.898;2023-12-20T07:25:45;4.99;92.75
69208;SHT31;70114;47.690;8.898;2023-12-20T07:28:10;4.96;92.66
69208;SHT31;70114;47.690;8.898;2023-12-20T07:30:36;4.94;93.30
69208;SHT31;70114;47.690;8.898;2023-12-20T07:33:02;4.89;93.34
69208;SHT31;70114;47.690;8.898;2023-12-20T07:35:28;4.99;92.94
69208;SHT31;70114;47.690;8.898;2023-12-20T07:37:53;4.99;93.03
69208;SHT31;70114;47.690;8.898;2023-12-20T07:40:19;5.01;93.16
69208;SHT31;70114;47.690;8.898;2023-12-20T07:42:44;5.07;92.70
69208;SHT31;70114;47.690;8.898;2023-12-20T07:45:09;5.08;92.78
69208;SHT31;70114;47.690;8.898;2023-12-20T07:47:38;5.07;92.97
69208;SHT31;70114;47.690;8.898;2023-12-20T07:50:04;5.00;93.40
69208;SHT31;70114;47.690;8.898;2023-12-20T07:52:30;5.06;93.21
69208;SHT31;70114;47.690;8.898;2023-12-20T07:54:55;5.07;92.93
69208;SHT31;70114;47.690;8.898;2023-12-20T07:57:21;5.08;93.36
69208;SHT31;70114;47.690;8.898;2023-12-20T07:59:46;5.06;93.36
69208;SHT31;70114;47.690;8.898;2023-12-20T08:02:12;5.06;93.54
69208;SHT31;70114;47.690;8.898;2023-12-20T08:04:37;5.03;93.62
69208;SHT31;70114;47.690;8.898;2023-12-20T08:07:03;5.14;93.25
69208;SHT31;70114;47.690;8.898;2023-12-20T08:09:29;5.13;93.58
69208;SHT31;70114;47.690;8.898;2023-12-20T08:11:55;5.06;93.79
69208;SHT31;70114;47.690;8.898;2023-12-20T08:14:21;5.03;94.11
69208;SHT31;70114;47.690;8.898;2023-12-20T08:16:46;5.04;94.18
69208;SHT31;70114;47.690;8.898;2023-12-20T08:19:11;5.03;94.14
69208;SHT31;70114;47.690;8.898;2023-12-20T08:21:37;5.10;94.19
69208;SHT31;70114;47.690;8.898;2023-12-20T08:24:03;5.21;93.51
69208;SHT31;70114;47.690;8.898;2023-12-20T08:26:28;5.30;93.18
69208;SHT31;70114;47.690;8.898;2023-12-20T08:28:54;5.23;93.43
69208;SHT31;70114;47.690;8.898;2023-12-20T08:31:19;5.34;93.22
69208;SHT31;70114;47.690;8.898;2023-12-20T08:33:47;5.30;93.20
69208;SHT31;70114;47.690;8.898;2023-12-20T08:36:13;5.27;93.35
69208;SHT31;70114;47.690;8.898;2023-12-20T08:38:38;5.18;93.58
69208;SHT31;70114;47.690;8.898;2023-12-20T08:41:04;5.16;93.85
69208;SHT31;70114;47.690;8.898;2023-12-20T08:43:34;5.28;93.58
69208;SHT31;70114;47.690;8.898;2023-12-20T08:46:00;5.32;93.26
69208;SHT31;70114;47.690;8.898;2023-12-20T08:48:25;5.28;93.37
69208;SHT31;70114;47.690;8.898;2023-12-20T08:50:51;5.28;93.29
69208;SHT31;70114;47.690;8.898;2023-12-20T08:53:18;5.35;93.10
69208;SHT31;70114;47.690;8.898;2023-12-20T08:55:44;5.34;93.09
69208;SHT31;70114;47.690;8.898;2023-12-20T08:58:09;5.31;93.31
69208;SHT31;70114;47.690;8.898;2023-12-20T09:00:34;5.37;93.15
69208;SHT31;70114;47.690;8.898;2023-12-20T09:03:01;5.32;93.41
69208;SHT31;70114;47.690;8.898;2023-12-20T09:05:27;5.34;93.27
69208;SHT31;70114;47.690;8.898;2023-12-20T09:07:53;5.31;93.14
69208;SHT31;70114;47.690;8.898;2023-12-20T09:10:18;5.30;93.31
69208;SHT31;70114;47.690;8.898;2023-12-20T09:12:51;5.31;93.39
69208;SHT31;70114;47.690;8.898;2023-12-20T09:15:17;5.34;93.13
69208;SHT31;70114;47.690;8.898;2023-12-20T09:17:42;5.39;93.15
69208;SHT31;70114;47.690;8.898;2023-12-20T09:20:09;5.39;93.24
69208;SHT31;70114;47.690;8.898;2023-12-20T09:22:34;5.38;93.26
69208;SHT31;70114;47.690;8.898;2023-12-20T09:25:00;5.41;93.17
69208;SHT31;70114;47.690;8.898;2023-12-20T09:27:27;5.42;93.18
69208;SHT31;70114;47.690;8.898;2023-12-20T09:29:52;5.45;93.09
69208;SHT31;70114;47.690;8.898;2023-12-20T09:32:18;5.42;92.79
69208;SHT31;70114;47.690;8.898;2023-12-20T09:34:45;5.47;92.97
69208;SHT31;70114;47.690;8.898;2023-12-20T09:37:11;5.56;92.79
69208;SHT31;70114;47.690;8.898;2023-12-20T09:39:36;5.54;92.74
69208;SHT31;70114;47.690;8.898;2023-12-20T09:42:03;5.49;92.90
69208;SHT31;70114;47.690;8.898;2023-12-20T09:44:30;5.55;92.70
69208;SHT31;70114;47.690;8.898;2023-12-20T09:46:56;5.52;92.88
69208;SHT31;70114;47.690;8.898;2023-12-20T09:49:22;5.55;92.77
69208;SHT31;70114;47.690;8.898;2023-12-20T09:51:50;5.63;92.58
69208;SHT31;70114;47.690;8.898;2023-12-20T09:54:19;5.58;92.64
69208;SHT31;70114;47.690;8.898;2023-12-20T09:56:45;5.54;92.57
69208;SHT31;70114;47.690;8.898;2023-12-20T09:59:11;5.60;93.03
69208;SHT31;70114;47.690;8.898;2023-12-20T10:01:38;5.62;92.69
69208;SHT31;70114;47.690;8.898;2023-12-20T10:04:09;5.66;92.68
69208;SHT31;70114;47.690;8.898;2023-12-20T10:06:37;5.60;92.33
69208;SHT31;70114;47.690;8.898;2023-12-20T10:09:03;5.70;92.38
69208;SHT31;70114;47.690;8.898;2023-12-20T10:11:29;5.72;92.33
69208;SHT31;70114;47.690;8.898;2023-12-20T10:13:59;5.66;92.24
69208;SHT31;70114;47.690;8.898;2023-12-20T10:16:26;5.65;92.47
69208;SHT31;70114;47.690;8.898;2023-12-20T10:18:53;5.73;92.42
69208;SHT31;70114;47.690;8.898;2023-12-20T10:21:19;5.72;92.50
69208;SHT31;70114;47.690;8.898;2023-12-20T10:23:45;5.69;92.52
69208;SHT31;70114;47.690;8.898;2023-12-20T10:26:19;5.69;92.52
69208;SHT31;70114;47.690;8.898;2023-12-20T10:28:45;5.73;92.57
69208;SHT31;70114;47.690;8.898;2023-12-20T10:31:10;5.70;92.61
69208;SHT31;70114;47.690;8.898;2023-12-20T10:33:36;5.79;92.49
69208;SHT31;70114;47.690;8.898;2023-12-20T10:36:02;5.87;92.24
69208;SHT31;70114;47.690;8.898;2023-12-20T10:38:28;5.85;92.25
69208;SHT31;70114;47.690;8.898;2023-12-20T10:40:57;5.82;92.27
69208;SHT31;70114;47.690;8.898;2023-12-20T10:43:25;5.87;92.13
69208;SHT31;70114;47.690;8.898;2023-12-20T10:45:51;5.96;92.24
69208;SHT31;70114;47.690;8.898;2023-12-20T10:48:18;6.00;91.92
69208;SHT31;70114;47.690;8.898;2023-12-20T10:50:44;5.95;91.89
69208;SHT31;70114;47.690;8.898;2023-12-20T10:53:10;5.99;91.18
69208;SHT31;70114;47.690;8.898;2023-12-20T10:55:37;5.96;91.27
69208;SHT31;70114;47.690;8.898;2023-12-20T10:58:12;6.03;91.30
69208;SHT31;70114;47.690;8.898;2023-12-20T11:00:40;6.02;91.13
69208;SHT31;70114;47.690;8.898;2023-12-20T11:03:09;6.07;90.88
69208;SHT31;70114;47.690;8.898;2023-12-20T11:05:44;6.16;90.80
69208;SHT31;70114;47.690;8.898;2023-12-20T11:08:26;6.23;89.69
69208;SHT31;70114;47.690;8.898;2023-12-20T11:11:13;6.23;89.28
69208;SHT31;70114;47.690;8.898;2023-12-20T11:14:08;6.31;88.99
69208;SHT31;70114;47.690;8.898;2023-12-20T11:16:41;6.40;88.84
69208;SHT31;70114;47.690;8.898;2023-12-20T11:19:06;6.49;88.79
69208;SHT31;70114;47.690;8.898;2023-12-20T11:21:32;6.45;88.61
69208;SHT31;70114;47.690;8.898;2023-12-20T11:23:59;6.45;88.85
69208;SHT31;70114;47.690;8.898;2023-12-20T11:26:28;6.30;89.42
69208;SHT31;70114;47.690;8.898;2023-12-20T11:28:54;6.33;89.51
69208;SHT31;70114;47.690;8.898;2023-12-20T11:31:19;6.31;89.54
69208;SHT31;70114;47.690;8.898;2023-12-20T11:33:45;6.28;89.36
69208;SHT31;70114;47.690;8.898;2023-12-20T11:36:14;6.21;89.39
69208;SHT31;70114;47.690;8.898;2023-12-20T11:38:57;6.10;89.83
69208;SHT31;70114;47.690;8.898;2023-12-20T11:41:26;6.11;89.68
69208;SHT31;70114;47.690;8.898;2023-12-20T11:43:55;6.16;89.50
69208;SHT31;70114;47.690;8.898;2023-12-20T11:46:21;6.17;88.97
69208;SHT31;70114;47.690;8.898;2023-12-20T11:48:47;6.17;88.46
69208;SHT31;70114;47.690;8.898;2023-12-20T11:51:13;6.11;88.28
69208;SHT31;70114;47.690;8.898;2023-12-20T11:53:40;6.18;87.93
69208;SHT31;70114;47.690;8.898;2023-12-20T11:56:06;6.14;87.43
69208;SHT31;70114;47.690;8.898;2023-12-20T11:58:33;6.23;87.72
69208;SHT31;70114;47.690;8.898;2023-12-20T12:00:59;6.25;87.62
69208;SHT31;70114;47.690;8.898;2023-12-20T12:03:24;6.41;87.43
69208;SHT31;70114;47.690;8.898;2023-12-20T12:05:50;6.41;87.39
69208;SHT31;70114;47.690;8.898;2023-12-20T12:08:16;6.40;86.71
69208;SHT31;70114;47.690;8.898;2023-12-20T12:13:08;6.52;87.40
69208;SHT31;70114;47.690;8.898;2023-12-20T12:15:35;6.55;87.54
69208;SHT31;70114;47.690;8.898;2023-12-20T12:18:01;6.62;87.23
69208;SHT31;70114;47.690;8.898;2023-12-20T12:20:26;6.76;86.32
69208;SHT31;70114;47.690;8.898;2023-12-20T12:23:01;6.71;86.30
69208;SHT31;70114;47.690;8.898;2023-12-20T12:25:29;6.56;86.17
69208;SHT31;70114;47.690;8.898;2023-12-20T12:27:56;6.61;86.23
69208;SHT31;70114;47.690;8.898;2023-12-20T12:30:21;6.59;86.21
69208;SHT31;70114;47.690;8.898;2023-12-20T12:32:47;6.54;86.29
69208;SHT31;70114;47.690;8.898;2023-12-20T12:35:13;6.44;85.94
69208;SHT31;70114;47.690;8.898;2023-12-20T12:37:40;6.35;86.15
69208;SHT31;70114;47.690;8.898;2023-12-20T12:40:10;6.25;86.06
69208;SHT31;70114;47.690;8.898;2023-12-20T12:42:36;6.34;85.01
69208;SHT31;70114;47.690;8.898;2023-12-20T12:45:02;6.28;84.66
69208;SHT31;70114;47.690;8.898;2023-12-20T12:47:28;6.37;84.53
69208;SHT31;70114;47.690;8.898;2023-12-20T12:49:53;6.68;83.87
69208;SHT31;70114;47.690;8.898;2023-12-20T12:52:19;7.02;82.79
69208;SHT31;70114;47.690;8.898;2023-12-20T12:54:45;6.88;82.01
69208;SHT31;70114;47.690;8.898;2023-12-20T12:57:11;7.02;82.06
69208;SHT31;70114;47.690;8.898;2023-12-20T12:59:36;7.19;81.66
69208;SHT31;70114;47.690;8.898;2023-12-20T13:02:02;6.99;81.83
69208;SHT31;70114;47.690;8.898;2023-12-20T13:04:27;6.99;81.84
69208;SHT31;70114;47.690;8.898;2023-12-20T13:06:53;6.75;81.52
69208;SHT31;70114;47.690;8.898;2023-12-20T13:09:18;6.71;81.93
69208;SHT31;70114;47.690;8.898;2023-12-20T13:11:44;6.56;82.20
69208;SHT31;70114;47.690;8.898;2023-12-20T13:14:09;6.67;82.81
69208;SHT31;70114;47.690;8.898;2023-12-20T13:16:40;6.61;81.94
69208;SHT31;70114;47.690;8.898;2023-12-20T13:19:05;6.59;82.48
69208;SHT31;70114;47.690;8.898;2023-12-20T13:21:31;6.52;82.54
69208;SHT31;70114;47.690;8.898;2023-12-20T13:23:56;6.62;81.97
69208;SHT31;70114;47.690;8.898;2023-12-20T13:26:22;6.52;81.75
69208;SHT31;70114;47.690;8.898;2023-12-20T13:28:47;6.42;81.88
69208;SHT31;70114;47.690;8.898;2023-12-20T13:31:13;6.44;82.30
69208;SHT31;70114;47.690;8.898;2023-12-20T13:33:38;6.37;82.20
69208;SHT31;70114;47.690;8.898;2023-12-20T13:36:04;6.52;82.44
69208;SHT31;70114;47.690;8.898;2023-12-20T13:38:30;6.59;82.86
69208;SHT31;70114;47.690;8.898;2023-12-20T13:40:55;6.59;83.15
69208;SHT31;70114;47.690;8.898;2023-12-20T13:43:23;6.71;82.30
69208;SHT31;70114;47.690;8.898;2023-12-20T13:45:49;6.65;82.28
69208;SHT31;70114;47.690;8.898;2023-12-20T13:48:15;6.67;81.88
69208;SHT31;70114;47.690;8.898;2023-12-20T13:50:40;6.71;81.65
69208;SHT31;70114;47.690;8.898;2023-12-20T13:53:06;6.59;81.51
69208;SHT31;70114;47.690;8.898;2023-12-20T13:55:31;6.71;81.32
69208;SHT31;70114;47.690;8.898;2023-12-20T13:57:56;6.45;81.07
69208;SHT31;70114;47.690;8.898;2023-12-20T14:00:23;6.33;81.12
69208;SHT31;70114;47.690;8.898;2023-12-20T14:02:48;6.44;81.33
69208;SHT31;70114;47.690;8.898;2023-12-20T14:05:15;6.41;81.32
69208;SHT31;70114;47.690;8.898;2023-12-20T14:07:45;6.31;79.95
69208;SHT31;70114;47.690;8.898;2023-12-20T14:10:12;6.33;79.74
69208;SHT31;70114;47.690;8.898;2023-12-20T14:12:38;6.27;79.10
69208;SHT31;70114;47.690;8.898;2023-12-20T14:15:04;6.27;78.37
69208;SHT31;70114;47.690;8.898;2023-12-20T14:17:34;6.34;79.04
69208;SHT31;70114;47.690;8.898;2023-12-20T14:20:00;6.28;77.82
69208;SHT31;70114;47.690;8.898;2023-12-20T14:22:25;6.24;77.21
69208;SHT31;70114;47.690;8.898;2023-12-20T14:24:51;6.41;77.72
69208;SHT31;70114;47.690;8.898;2023-12-20T14:27:16;6.71;78.02
69208;SHT31;70114;47.690;8.898;2023-12-20T14:29:41;6.59;77.22
69208;SHT31;70114;47.690;8.898;2023-12-20T14:32:07;6.69;77.31
69208;SHT31;70114;47.690;8.898;2023-12-20T14:34:32;6.67;78.40
69208;SHT31;70114;47.690;8.898;2023-12-20T14:36:58;6.64;78.62
69208;SHT31;70114;47.690;8.898;2023-12-20T14:39:23;6.52;79.05
69208;SHT31;70114;47.690;8.898;2023-12-20T14:41:48;6.40;78.99
69208;SHT31;70114;47.690;8.898;2023-12-20T14:44:14;6.24;79.70
69208;SHT31;70114;47.690;8.898;2023-12-20T14:46:39;5.92;79.42
69208;SHT31;70114;47.690;8.898;2023-12-20T14:49:05;5.85;80.15
69208;SHT31;70114;47.690;8.898;2023-12-20T14:51:30;5.76;80.53
69208;SHT31;70114;47.690;8.898;2023-12-20T14:53:56;5.56;81.13
69208;SHT31;70114;47.690;8.898;2023-12-20T14:56:23;5.49;81.19
69208;SHT31;70114;47.690;8.898;2023-12-20T14:58:49;5.44;82.07
69208;SHT31;70114;47.690;8.898;2023-12-20T15:01:14;5.44;81.53
69208;SHT31;70114;47.690;8.898;2023-12-20T15:03:40;5.44;81.54
69208;SHT31;70114;47.690;8.898;2023-12-20T15:06:06;5.39;81.44
69208;SHT31;70114;47.690;8.898;2023-12-20T15:08:32;5.17;81.01
69208;SHT31;70114;47.690;8.898;2023-12-20T15:10:57;5.20;81.00
69208;SHT31;70114;47.690;8.898;2023-12-20T15:13:23;4.99;81.26
69208;SHT31;70114;47.690;8.898;2023-12-20T15:15:48;5.00;81.46
69208;SHT31;70114;47.690;8.898;2023-12-20T15:18:14;4.91;81.52
69208;SHT31;70114;47.690;8.898;2023-12-20T15:20:40;4.91;81.39
69208;SHT31;70114;47.690;8.898;2023-12-20T15:23:05;5.00;80.97
69208;SHT31;70114;47.690;8.898;2023-12-20T15:25:32;4.99;80.88
69208;SHT31;70114;47.690;8.898;2023-12-20T15:27:58;4.90;80.50
69208;SHT31;70114;47.690;8.898;2023-12-20T15:30:23;4.79;81.13
69208;SHT31;70114;47.690;8.898;2023-12-20T15:32:49;4.80;80.78
69208;SHT31;70114;47.690;8.898;2023-12-20T15:35:15;4.83;80.82
69208;SHT31;70114;47.690;8.898;2023-12-20T15:37:40;4.87;80.53
69208;SHT31;70114;47.690;8.898;2023-12-20T15:40:09;4.84;80.34